Aviation Digital Data Service (ADDS)

Output produced by METARs form (2152 UTC 19 February 2018)
found at http://www.aviationweather.gov/adds/metars/
 
EVLA 192120Z AUTO 06006KT 4000 -SN SCT009/// OVC011/// M01/M01 Q1024
TAF EVLA 192003Z 1921/2021 07005KT 7000 BKN006 OVC015 
     PROB40 
     TEMPO 1921/2006 0500 FZFG OVC002 
     BECMG 2012/2014 BKN020
       
EVRA 192150Z 09004KT 040V110 9999 OVC014 M06/M08 Q1025 R36/190095 NOSIG
TAF EVRA 192000Z 1921/2021 36007KT 9000 OVC012 
     PROB40 
     TEMPO 2000/2007 0700 FZFG BKN002 
     BECMG 2012/2014 BKN020
       
EVVA 192120Z AUTO 09003KT 9999 OVC018 M05/M07 Q1026